sensor_id;sensor_type;location;lat;lon;timestamp;pressure;altitude;pressure_sealevel;temperature;humidity
62632;BME280;48703;51.248;-0.546;2023-03-04T00:02:09;102396;;;4.84;71.63
62632;BME280;48703;51.248;-0.546;2023-03-04T00:05:10;102394;;;4.83;72.32
62632;BME280;48703;51.248;-0.546;2023-03-04T00:08:12;102391;;;4.83;72.58
62632;BME280;48703;51.248;-0.546;2023-03-04T00:11:14;102388;;;4.82;72.59
62632;BME280;48703;51.248;-0.546;2023-03-04T00:14:16;102385;;;4.82;72.80
62632;BME280;48703;51.248;-0.546;2023-03-04T00:17:18;102381;;;4.82;72.81
62632;BME280;48703;51.248;-0.546;2023-03-04T00:20:20;102380;;;4.82;72.50
62632;BME280;48703;51.248;-0.546;2023-03-04T00:23:22;102379;;;4.81;72.81
62632;BME280;48703;51.248;-0.546;2023-03-04T00:26:24;102379;;;4.81;72.43
62632;BME280;48703;51.248;-0.546;2023-03-04T00:29:26;102376;;;4.79;72.39
62632;BME280;48703;51.248;-0.546;2023-03-04T00:32:28;102375;;;4.79;72.19
62632;BME280;48703;51.248;-0.546;2023-03-04T00:35:30;102373;;;4.78;72.29
62632;BME280;48703;51.248;-0.546;2023-03-04T00:38:32;102371;;;4.78;72.67
62632;BME280;48703;51.248;-0.546;2023-03-04T00:41:34;102371;;;4.77;72.78
62632;BME280;48703;51.248;-0.546;2023-03-04T00:44:36;102374;;;4.78;72.93
62632;BME280;48703;51.248;-0.546;2023-03-04T00:47:38;102373;;;4.77;72.61
62632;BME280;48703;51.248;-0.546;2023-03-04T00:50:40;102376;;;4.76;72.46
62632;BME280;48703;51.248;-0.546;2023-03-04T00:53:41;102379;;;4.76;72.99
62632;BME280;48703;51.248;-0.546;2023-03-04T00:56:43;102379;;;4.73;72.03
62632;BME280;48703;51.248;-0.546;2023-03-04T00:59:45;102380;;;4.73;72.87
62632;BME280;48703;51.248;-0.546;2023-03-04T01:02:48;102382;;;4.73;73.03
62632;BME280;48703;51.248;-0.546;2023-03-04T01:05:49;102386;;;4.72;72.15
62632;BME280;48703;51.248;-0.546;2023-03-04T01:08:51;102390;;;4.71;72.32
62632;BME280;48703;51.248;-0.546;2023-03-04T01:11:53;102392;;;4.71;72.45
62632;BME280;48703;51.248;-0.546;2023-03-04T01:14:55;102387;;;4.71;72.48
62632;BME280;48703;51.248;-0.546;2023-03-04T01:17:57;102389;;;4.70;73.04
62632;BME280;48703;51.248;-0.546;2023-03-04T01:20:59;102390;;;4.69;72.41
62632;BME280;48703;51.248;-0.546;2023-03-04T01:24:01;102389;;;4.69;72.59
62632;BME280;48703;51.248;-0.546;2023-03-04T01:27:03;102388;;;4.69;72.35
62632;BME280;48703;51.248;-0.546;2023-03-04T01:30:05;102387;;;4.68;72.66
62632;BME280;48703;51.248;-0.546;2023-03-04T01:33:07;102388;;;4.68;72.67
62632;BME280;48703;51.248;-0.546;2023-03-04T01:36:09;102388;;;4.68;72.81
62632;BME280;48703;51.248;-0.546;2023-03-04T01:39:11;102387;;;4.67;73.00
62632;BME280;48703;51.248;-0.546;2023-03-04T01:42:15;102386;;;4.65;72.90
62632;BME280;48703;51.248;-0.546;2023-03-04T01:45:15;102386;;;4.65;73.34
62632;BME280;48703;51.248;-0.546;2023-03-04T01:48:17;102383;;;4.65;73.31
62632;BME280;48703;51.248;-0.546;2023-03-04T01:51:19;102381;;;4.64;73.07
62632;BME280;48703;51.248;-0.546;2023-03-04T01:54:21;102380;;;4.63;73.45
62632;BME280;48703;51.248;-0.546;2023-03-04T01:57:23;102379;;;4.63;73.35
62632;BME280;48703;51.248;-0.546;2023-03-04T02:00:26;102376;;;4.63;73.80
62632;BME280;48703;51.248;-0.546;2023-03-04T02:03:26;102371;;;4.62;73.89
62632;BME280;48703;51.248;-0.546;2023-03-04T02:06:28;102370;;;4.61;73.71
62632;BME280;48703;51.248;-0.546;2023-03-04T02:09:30;102366;;;4.61;73.77
62632;BME280;48703;51.248;-0.546;2023-03-04T02:12:32;102361;;;4.59;74.11
62632;BME280;48703;51.248;-0.546;2023-03-04T02:15:34;102357;;;4.60;74.32
62632;BME280;48703;51.248;-0.546;2023-03-04T02:18:36;102355;;;4.58;73.61
62632;BME280;48703;51.248;-0.546;2023-03-04T02:21:38;102357;;;4.58;73.80
62632;BME280;48703;51.248;-0.546;2023-03-04T02:24:41;102351;;;4.57;73.80
62632;BME280;48703;51.248;-0.546;2023-03-04T02:27:42;102346;;;4.57;74.17
62632;BME280;48703;51.248;-0.546;2023-03-04T02:30:44;102340;;;4.57;74.12
62632;BME280;48703;51.248;-0.546;2023-03-04T02:33:46;102338;;;4.56;74.37
62632;BME280;48703;51.248;-0.546;2023-03-04T02:36:48;102335;;;4.56;74.51
62632;BME280;48703;51.248;-0.546;2023-03-04T02:39:49;102331;;;4.55;74.51
62632;BME280;48703;51.248;-0.546;2023-03-04T02:42:51;102329;;;4.54;74.54
62632;BME280;48703;51.248;-0.546;2023-03-04T02:45:53;102326;;;4.55;74.95
62632;BME280;48703;51.248;-0.546;2023-03-04T02:48:55;102325;;;4.54;74.85
62632;BME280;48703;51.248;-0.546;2023-03-04T02:51:58;102324;;;4.53;74.81
62632;BME280;48703;51.248;-0.546;2023-03-04T02:54:59;102323;;;4.54;74.76
62632;BME280;48703;51.248;-0.546;2023-03-04T02:58:01;102324;;;4.54;74.59
62632;BME280;48703;51.248;-0.546;2023-03-04T03:01:03;102321;;;4.51;74.45
62632;BME280;48703;51.248;-0.546;2023-03-04T03:04:05;102321;;;4.50;74.75
62632;BME280;48703;51.248;-0.546;2023-03-04T03:07:07;102317;;;4.50;74.91
62632;BME280;48703;51.248;-0.546;2023-03-04T03:10:09;102316;;;4.51;75.06
62632;BME280;48703;51.248;-0.546;2023-03-04T03:13:11;102314;;;4.50;74.76
62632;BME280;48703;51.248;-0.546;2023-03-04T03:16:13;102315;;;4.50;75.04
62632;BME280;48703;51.248;-0.546;2023-03-04T03:19:15;102316;;;4.50;75.33
62632;BME280;48703;51.248;-0.546;2023-03-04T03:22:17;102316;;;4.50;75.09
62632;BME280;48703;51.248;-0.546;2023-03-04T03:25:19;102316;;;4.50;75.16
62632;BME280;48703;51.248;-0.546;2023-03-04T03:28:21;102318;;;4.49;74.87
62632;BME280;48703;51.248;-0.546;2023-03-04T03:31:22;102322;;;4.49;74.91
62632;BME280;48703;51.248;-0.546;2023-03-04T03:34:24;102324;;;4.47;74.75
62632;BME280;48703;51.248;-0.546;2023-03-04T03:37:26;102322;;;4.47;74.78
62632;BME280;48703;51.248;-0.546;2023-03-04T03:40:28;102326;;;4.48;74.85
62632;BME280;48703;51.248;-0.546;2023-03-04T03:43:30;102328;;;4.47;74.65
62632;BME280;48703;51.248;-0.546;2023-03-04T03:46:32;102330;;;4.48;74.88
62632;BME280;48703;51.248;-0.546;2023-03-04T03:49:34;102329;;;4.49;74.87
62632;BME280;48703;51.248;-0.546;2023-03-04T03:52:36;102329;;;4.47;74.09
62632;BME280;48703;51.248;-0.546;2023-03-04T03:55:38;102326;;;4.46;74.36
62632;BME280;48703;51.248;-0.546;2023-03-04T03:58:40;102321;;;4.46;74.34
62632;BME280;48703;51.248;-0.546;2023-03-04T04:01:42;102320;;;4.45;74.26
62632;BME280;48703;51.248;-0.546;2023-03-04T04:04:44;102320;;;4.46;74.33
62632;BME280;48703;51.248;-0.546;2023-03-04T04:07:46;102322;;;4.44;74.45
62632;BME280;48703;51.248;-0.546;2023-03-04T04:10:48;102323;;;4.44;74.77
62632;BME280;48703;51.248;-0.546;2023-03-04T04:13:50;102327;;;4.45;74.85
62632;BME280;48703;51.248;-0.546;2023-03-04T04:16:52;102324;;;4.45;74.84
62632;BME280;48703;51.248;-0.546;2023-03-04T04:19:54;102326;;;4.45;74.52
62632;BME280;48703;51.248;-0.546;2023-03-04T04:22:56;102324;;;4.45;74.76
62632;BME280;48703;51.248;-0.546;2023-03-04T04:25:58;102324;;;4.45;74.75
62632;BME280;48703;51.248;-0.546;2023-03-04T04:28:59;102322;;;4.43;74.43
62632;BME280;48703;51.248;-0.546;2023-03-04T04:32:01;102327;;;4.45;74.52
62632;BME280;48703;51.248;-0.546;2023-03-04T04:35:04;102327;;;4.45;74.66
62632;BME280;48703;51.248;-0.546;2023-03-04T04:38:05;102325;;;4.44;74.58
62632;BME280;48703;51.248;-0.546;2023-03-04T04:41:15;102325;;;4.45;74.78
62632;BME280;48703;51.248;-0.546;2023-03-04T04:44:10;102327;;;4.45;74.81
62632;BME280;48703;51.248;-0.546;2023-03-04T04:47:11;102327;;;4.45;74.94
62632;BME280;48703;51.248;-0.546;2023-03-04T04:50:13;102329;;;4.46;75.16
62632;BME280;48703;51.248;-0.546;2023-03-04T04:53:15;102331;;;4.46;75.08
62632;BME280;48703;51.248;-0.546;2023-03-04T04:56:18;102334;;;4.44;75.07
62632;BME280;48703;51.248;-0.546;2023-03-04T04:59:19;102336;;;4.43;75.40
62632;BME280;48703;51.248;-0.546;2023-03-04T05:02:21;102334;;;4.43;75.09
62632;BME280;48703;51.248;-0.546;2023-03-04T05:05:23;102335;;;4.44;75.68
62632;BME280;48703;51.248;-0.546;2023-03-04T05:08:25;102334;;;4.44;75.34
62632;BME280;48703;51.248;-0.546;2023-03-04T05:11:27;102336;;;4.44;75.35
62632;BME280;48703;51.248;-0.546;2023-03-04T05:14:29;102335;;;4.44;75.52
62632;BME280;48703;51.248;-0.546;2023-03-04T05:17:31;102333;;;4.46;75.56
62632;BME280;48703;51.248;-0.546;2023-03-04T05:20:32;102336;;;4.46;75.88
62632;BME280;48703;51.248;-0.546;2023-03-04T05:23:35;102339;;;4.45;75.65
62632;BME280;48703;51.248;-0.546;2023-03-04T05:26:36;102340;;;4.45;75.96
62632;BME280;48703;51.248;-0.546;2023-03-04T05:29:38;102339;;;4.44;76.15
62632;BME280;48703;51.248;-0.546;2023-03-04T05:32:40;102336;;;4.43;76.14
62632;BME280;48703;51.248;-0.546;2023-03-04T05:35:42;102337;;;4.42;76.25
62632;BME280;48703;51.248;-0.546;2023-03-04T05:38:44;102339;;;4.43;76.47
62632;BME280;48703;51.248;-0.546;2023-03-04T05:41:46;102339;;;4.44;76.43
62632;BME280;48703;51.248;-0.546;2023-03-04T05:44:48;102338;;;4.42;76.49
62632;BME280;48703;51.248;-0.546;2023-03-04T05:47:50;102339;;;4.43;76.72
62632;BME280;48703;51.248;-0.546;2023-03-04T05:50:52;102342;;;4.43;76.62
62632;BME280;48703;51.248;-0.546;2023-03-04T05:53:54;102345;;;4.43;76.81
62632;BME280;48703;51.248;-0.546;2023-03-04T05:56:56;102346;;;4.44;76.84
62632;BME280;48703;51.248;-0.546;2023-03-04T05:59:58;102344;;;4.43;76.88
62632;BME280;48703;51.248;-0.546;2023-03-04T06:03:00;102346;;;4.44;77.16
62632;BME280;48703;51.248;-0.546;2023-03-04T06:06:02;102345;;;4.44;77.04
62632;BME280;48703;51.248;-0.546;2023-03-04T06:09:04;102346;;;4.43;77.06
62632;BME280;48703;51.248;-0.546;2023-03-04T06:12:06;102349;;;4.42;76.82
62632;BME280;48703;51.248;-0.546;2023-03-04T06:15:08;102351;;;4.44;77.20
62632;BME280;48703;51.248;-0.546;2023-03-04T06:18:10;102349;;;4.44;77.40
62632;BME280;48703;51.248;-0.546;2023-03-04T06:21:11;102345;;;4.44;76.97
62632;BME280;48703;51.248;-0.546;2023-03-04T06:24:13;102346;;;4.45;77.26
62632;BME280;48703;51.248;-0.546;2023-03-04T06:27:15;102345;;;4.45;76.86
62632;BME280;48703;51.248;-0.546;2023-03-04T06:30:17;102346;;;4.45;77.19
62632;BME280;48703;51.248;-0.546;2023-03-04T06:33:19;102348;;;4.45;77.04
62632;BME280;48703;51.248;-0.546;2023-03-04T06:36:21;102352;;;4.45;76.72
62632;BME280;48703;51.248;-0.546;2023-03-04T06:39:23;102354;;;4.44;76.39
62632;BME280;48703;51.248;-0.546;2023-03-04T06:42:25;102354;;;4.41;75.75
62632;BME280;48703;51.248;-0.546;2023-03-04T06:45:27;102357;;;4.41;75.85
62632;BME280;48703;51.248;-0.546;2023-03-04T06:48:29;102359;;;4.40;75.40
62632;BME280;48703;51.248;-0.546;2023-03-04T06:51:31;102363;;;4.41;75.81
62632;BME280;48703;51.248;-0.546;2023-03-04T06:54:33;102365;;;4.41;75.81
62632;BME280;48703;51.248;-0.546;2023-03-04T06:57:35;102366;;;4.43;75.79
62632;BME280;48703;51.248;-0.546;2023-03-04T07:00:37;102366;;;4.42;75.65
62632;BME280;48703;51.248;-0.546;2023-03-04T07:03:39;102368;;;4.41;75.76
62632;BME280;48703;51.248;-0.546;2023-03-04T07:06:41;102369;;;4.40;75.36
62632;BME280;48703;51.248;-0.546;2023-03-04T07:09:42;102369;;;4.40;75.61
62632;BME280;48703;51.248;-0.546;2023-03-04T07:12:45;102372;;;4.40;75.90
62632;BME280;48703;51.248;-0.546;2023-03-04T07:15:46;102376;;;4.41;76.07
62632;BME280;48703;51.248;-0.546;2023-03-04T07:18:48;102383;;;4.41;75.94
62632;BME280;48703;51.248;-0.546;2023-03-04T07:21:50;102387;;;4.41;76.03
62632;BME280;48703;51.248;-0.546;2023-03-04T07:24:52;102389;;;4.42;76.31
62632;BME280;48703;51.248;-0.546;2023-03-04T07:27:54;102390;;;4.43;76.33
62632;BME280;48703;51.248;-0.546;2023-03-04T07:30:56;102394;;;4.44;76.30
62632;BME280;48703;51.248;-0.546;2023-03-04T07:33:59;102399;;;4.44;76.38
62632;BME280;48703;51.248;-0.546;2023-03-04T07:37:00;102402;;;4.43;76.66
62632;BME280;48703;51.248;-0.546;2023-03-04T07:40:02;102407;;;4.42;77.16
62632;BME280;48703;51.248;-0.546;2023-03-04T07:43:04;102407;;;4.41;77.24
62632;BME280;48703;51.248;-0.546;2023-03-04T07:46:06;102407;;;4.37;77.35
62632;BME280;48703;51.248;-0.546;2023-03-04T07:49:10;102405;;;4.37;77.78
62632;BME280;48703;51.248;-0.546;2023-03-04T07:52:10;102406;;;4.41;78.09
62632;BME280;48703;51.248;-0.546;2023-03-04T07:55:12;102410;;;4.42;78.29
62632;BME280;48703;51.248;-0.546;2023-03-04T07:58:14;102410;;;4.44;78.31
62632;BME280;48703;51.248;-0.546;2023-03-04T08:01:17;102413;;;4.45;78.27
62632;BME280;48703;51.248;-0.546;2023-03-04T08:04:17;102414;;;4.47;78.32
62632;BME280;48703;51.248;-0.546;2023-03-04T08:07:19;102416;;;4.47;78.19
62632;BME280;48703;51.248;-0.546;2023-03-04T08:10:21;102418;;;4.47;78.07
62632;BME280;48703;51.248;-0.546;2023-03-04T08:13:23;102419;;;4.49;78.12
62632;BME280;48703;51.248;-0.546;2023-03-04T08:16:25;102421;;;4.52;77.74
62632;BME280;48703;51.248;-0.546;2023-03-04T08:19:27;102422;;;4.54;77.97
62632;BME280;48703;51.248;-0.546;2023-03-04T08:22:29;102421;;;4.58;77.70
62632;BME280;48703;51.248;-0.546;2023-03-04T08:25:31;102420;;;4.59;77.21
62632;BME280;48703;51.248;-0.546;2023-03-04T08:28:33;102418;;;4.63;77.50
62632;BME280;48703;51.248;-0.546;2023-03-04T08:31:35;102419;;;4.66;77.47
62632;BME280;48703;51.248;-0.546;2023-03-04T08:34:38;102418;;;4.68;77.75
62632;BME280;48703;51.248;-0.546;2023-03-04T08:37:39;102415;;;4.69;77.92
62632;BME280;48703;51.248;-0.546;2023-03-04T08:40:41;102417;;;4.74;78.25
62632;BME280;48703;51.248;-0.546;2023-03-04T08:43:43;102419;;;4.77;78.11
62632;BME280;48703;51.248;-0.546;2023-03-04T08:46:45;102420;;;4.78;77.86
62632;BME280;48703;51.248;-0.546;2023-03-04T08:49:47;102420;;;4.82;77.96
62632;BME280;48703;51.248;-0.546;2023-03-04T08:52:49;102420;;;4.80;77.97
62632;BME280;48703;51.248;-0.546;2023-03-04T08:55:51;102421;;;4.83;78.61
62632;BME280;48703;51.248;-0.546;2023-03-04T08:58:52;102418;;;4.86;78.28
62632;BME280;48703;51.248;-0.546;2023-03-04T09:01:54;102416;;;4.90;78.15
62632;BME280;48703;51.248;-0.546;2023-03-04T09:04:56;102418;;;4.95;78.16
62632;BME280;48703;51.248;-0.546;2023-03-04T09:07:58;102420;;;5.03;78.21
62632;BME280;48703;51.248;-0.546;2023-03-04T09:11:00;102423;;;5.07;78.25
62632;BME280;48703;51.248;-0.546;2023-03-04T09:14:02;102421;;;5.11;78.32
62632;BME280;48703;51.248;-0.546;2023-03-04T09:17:05;102420;;;5.14;78.83
62632;BME280;48703;51.248;-0.546;2023-03-04T09:20:07;102418;;;5.14;78.20
62632;BME280;48703;51.248;-0.546;2023-03-04T09:23:08;102419;;;5.17;79.10
62632;BME280;48703;51.248;-0.546;2023-03-04T09:26:14;102419;;;5.22;78.21
62632;BME280;48703;51.248;-0.546;2023-03-04T09:29:12;102416;;;5.29;78.18
62632;BME280;48703;51.248;-0.546;2023-03-04T09:32:14;102420;;;5.39;77.94
62632;BME280;48703;51.248;-0.546;2023-03-04T09:35:16;102418;;;5.45;77.26
62632;BME280;48703;51.248;-0.546;2023-03-04T09:38:18;102416;;;5.46;76.51
62632;BME280;48703;51.248;-0.546;2023-03-04T09:41:20;102417;;;5.47;76.71
62632;BME280;48703;51.248;-0.546;2023-03-04T09:44:23;102421;;;5.50;76.73
62632;BME280;48703;51.248;-0.546;2023-03-04T09:47:24;102423;;;5.53;76.61
62632;BME280;48703;51.248;-0.546;2023-03-04T09:50:26;102422;;;5.58;76.87
62632;BME280;48703;51.248;-0.546;2023-03-04T09:53:29;102420;;;5.64;76.44
62632;BME280;48703;51.248;-0.546;2023-03-04T09:56:30;102420;;;5.64;75.24
62632;BME280;48703;51.248;-0.546;2023-03-04T09:59:34;102419;;;5.65;75.20
62632;BME280;48703;51.248;-0.546;2023-03-04T10:02:36;102419;;;5.66;74.59
62632;BME280;48703;51.248;-0.546;2023-03-04T10:05:37;102415;;;5.66;74.30
62632;BME280;48703;51.248;-0.546;2023-03-04T10:08:39;102412;;;5.72;74.17
62632;BME280;48703;51.248;-0.546;2023-03-04T10:11:40;102411;;;5.74;74.46
62632;BME280;48703;51.248;-0.546;2023-03-04T10:14:42;102410;;;5.75;74.44
62632;BME280;48703;51.248;-0.546;2023-03-04T10:17:44;102411;;;5.75;74.73
62632;BME280;48703;51.248;-0.546;2023-03-04T10:20:49;102406;;;5.76;74.90
62632;BME280;48703;51.248;-0.546;2023-03-04T10:23:47;102405;;;5.81;75.05
62632;BME280;48703;51.248;-0.546;2023-03-04T10:26:50;102406;;;5.84;73.99
62632;BME280;48703;51.248;-0.546;2023-03-04T10:29:51;102406;;;5.90;74.03
62632;BME280;48703;51.248;-0.546;2023-03-04T10:32:53;102404;;;5.89;72.81
62632;BME280;48703;51.248;-0.546;2023-03-04T10:35:57;102399;;;5.92;73.73
62632;BME280;48703;51.248;-0.546;2023-03-04T10:38:58;102397;;;5.91;73.13
62632;BME280;48703;51.248;-0.546;2023-03-04T10:42:00;102394;;;5.92;73.76
62632;BME280;48703;51.248;-0.546;2023-03-04T10:45:00;102396;;;5.91;73.90
62632;BME280;48703;51.248;-0.546;2023-03-04T10:48:02;102396;;;5.92;73.75
62632;BME280;48703;51.248;-0.546;2023-03-04T10:51:09;102397;;;5.93;73.84
62632;BME280;48703;51.248;-0.546;2023-03-04T10:54:07;102396;;;5.97;73.65
62632;BME280;48703;51.248;-0.546;2023-03-04T10:57:12;102393;;;6.01;72.14
62632;BME280;48703;51.248;-0.546;2023-03-04T11:00:27;102388;;;6.06;72.90
62632;BME280;48703;51.248;-0.546;2023-03-04T11:03:29;102382;;;6.16;72.11
62632;BME280;48703;51.248;-0.546;2023-03-04T11:06:16;102378;;;6.19;70.44
62632;BME280;48703;51.248;-0.546;2023-03-04T11:09:20;102373;;;6.17;69.19
62632;BME280;48703;51.248;-0.546;2023-03-04T11:12:19;102373;;;6.21;71.04
62632;BME280;48703;51.248;-0.546;2023-03-04T11:15:20;102377;;;6.20;69.62
62632;BME280;48703;51.248;-0.546;2023-03-04T11:18:22;102379;;;6.21;70.60
62632;BME280;48703;51.248;-0.546;2023-03-04T11:21:24;102378;;;6.22;70.08
62632;BME280;48703;51.248;-0.546;2023-03-04T11:24:27;102373;;;6.23;71.04
62632;BME280;48703;51.248;-0.546;2023-03-04T11:27:30;102375;;;6.27;69.88
62632;BME280;48703;51.248;-0.546;2023-03-04T11:30:32;102373;;;6.27;69.53
62632;BME280;48703;51.248;-0.546;2023-03-04T11:33:33;102373;;;6.31;69.57
62632;BME280;48703;51.248;-0.546;2023-03-04T11:36:34;102370;;;6.40;69.60
62632;BME280;48703;51.248;-0.546;2023-03-04T11:39:36;102368;;;6.43;68.46
62632;BME280;48703;51.248;-0.546;2023-03-04T11:42:39;102368;;;6.50;69.99
62632;BME280;48703;51.248;-0.546;2023-03-04T11:45:47;102361;;;6.57;69.29
62632;BME280;48703;51.248;-0.546;2023-03-04T11:48:44;102359;;;6.63;69.62
62632;BME280;48703;51.248;-0.546;2023-03-04T11:51:44;102356;;;6.71;69.19
62632;BME280;48703;51.248;-0.546;2023-03-04T11:54:58;102356;;;6.76;69.13
62632;BME280;48703;51.248;-0.546;2023-03-04T11:57:49;102357;;;6.66;65.37
62632;BME280;48703;51.248;-0.546;2023-03-04T12:00:51;102354;;;6.56;66.19
62632;BME280;48703;51.248;-0.546;2023-03-04T12:03:55;102359;;;6.51;66.56
62632;BME280;48703;51.248;-0.546;2023-03-04T12:06:56;102354;;;6.42;67.51
62632;BME280;48703;51.248;-0.546;2023-03-04T12:09:56;102350;;;6.34;67.77
62632;BME280;48703;51.248;-0.546;2023-03-04T12:13:01;102346;;;6.29;68.22
62632;BME280;48703;51.248;-0.546;2023-03-04T12:16:00;102343;;;6.27;68.23
62632;BME280;48703;51.248;-0.546;2023-03-04T12:19:04;102335;;;6.24;69.42
62632;BME280;48703;51.248;-0.546;2023-03-04T12:22:07;102334;;;6.30;69.03
62632;BME280;48703;51.248;-0.546;2023-03-04T12:25:09;102330;;;6.31;68.60
62632;BME280;48703;51.248;-0.546;2023-03-04T12:28:10;102330;;;6.35;68.52
62632;BME280;48703;51.248;-0.546;2023-03-04T12:31:28;102325;;;6.39;68.70
62632;BME280;48703;51.248;-0.546;2023-03-04T12:34:19;102323;;;6.37;67.42
62632;BME280;48703;51.248;-0.546;2023-03-04T12:37:20;102315;;;6.40;67.97
62632;BME280;48703;51.248;-0.546;2023-03-04T12:40:17;102310;;;6.43;66.98
62632;BME280;48703;51.248;-0.546;2023-03-04T12:43:26;102306;;;6.52;68.30
62632;BME280;48703;51.248;-0.546;2023-03-04T12:46:25;102298;;;6.61;66.90
62632;BME280;48703;51.248;-0.546;2023-03-04T12:49:25;102294;;;6.69;67.77
62632;BME280;48703;51.248;-0.546;2023-03-04T12:52:25;102290;;;6.74;67.27
62632;BME280;48703;51.248;-0.546;2023-03-04T12:55:28;102287;;;6.71;66.14
62632;BME280;48703;51.248;-0.546;2023-03-04T12:58:27;102281;;;6.72;67.23
62632;BME280;48703;51.248;-0.546;2023-03-04T13:01:28;102275;;;6.72;67.23
62632;BME280;48703;51.248;-0.546;2023-03-04T13:04:33;102272;;;6.74;67.73
62632;BME280;48703;51.248;-0.546;2023-03-04T13:07:36;102270;;;6.75;67.13
62632;BME280;48703;51.248;-0.546;2023-03-04T13:10:34;102268;;;6.73;67.23
62632;BME280;48703;51.248;-0.546;2023-03-04T13:13:37;102265;;;6.74;68.43
62632;BME280;48703;51.248;-0.546;2023-03-04T13:16:38;102263;;;6.73;67.46
62632;BME280;48703;51.248;-0.546;2023-03-04T13:19:43;102261;;;6.71;67.48
62632;BME280;48703;51.248;-0.546;2023-03-04T13:22:45;102261;;;6.68;67.31
62632;BME280;48703;51.248;-0.546;2023-03-04T13:25:44;102260;;;6.68;67.68
62632;BME280;48703;51.248;-0.546;2023-03-04T13:28:46;102259;;;6.67;68.32
62632;BME280;48703;51.248;-0.546;2023-03-04T13:32:03;102254;;;6.66;67.36
62632;BME280;48703;51.248;-0.546;2023-03-04T13:34:50;102250;;;6.66;67.34
62632;BME280;48703;51.248;-0.546;2023-03-04T13:37:55;102245;;;6.69;68.54
62632;BME280;48703;51.248;-0.546;2023-03-04T13:41:06;102243;;;6.69;68.40
62632;BME280;48703;51.248;-0.546;2023-03-04T13:43:56;102238;;;6.66;67.13
62632;BME280;48703;51.248;-0.546;2023-03-04T13:46:57;102237;;;6.68;67.91
62632;BME280;48703;51.248;-0.546;2023-03-04T13:51:11;102231;;;6.69;67.27
62632;BME280;48703;51.248;-0.546;2023-03-04T13:53:18;102227;;;6.67;67.00
62632;BME280;48703;51.248;-0.546;2023-03-04T13:56:07;102225;;;6.67;68.09
62632;BME280;48703;51.248;-0.546;2023-03-04T13:59:23;102225;;;6.66;67.79
62632;BME280;48703;51.248;-0.546;2023-03-04T14:02:10;102224;;;6.68;67.97
62632;BME280;48703;51.248;-0.546;2023-03-04T14:05:10;102224;;;6.68;67.94
62632;BME280;48703;51.248;-0.546;2023-03-04T14:08:18;102225;;;6.68;67.52
62632;BME280;48703;51.248;-0.546;2023-03-04T14:11:13;102223;;;6.67;67.30
62632;BME280;48703;51.248;-0.546;2023-03-04T14:14:15;102224;;;6.63;66.78
62632;BME280;48703;51.248;-0.546;2023-03-04T14:17:17;102220;;;6.60;66.62
62632;BME280;48703;51.248;-0.546;2023-03-04T14:20:21;102220;;;6.57;66.28
62632;BME280;48703;51.248;-0.546;2023-03-04T14:23:23;102218;;;6.53;65.75
62632;BME280;48703;51.248;-0.546;2023-03-04T14:26:22;102219;;;6.47;66.22
62632;BME280;48703;51.248;-0.546;2023-03-04T14:29:25;102216;;;6.45;65.92
62632;BME280;48703;51.248;-0.546;2023-03-04T14:32:27;102212;;;6.46;66.53
62632;BME280;48703;51.248;-0.546;2023-03-04T14:35:29;102208;;;6.47;66.77
62632;BME280;48703;51.248;-0.546;2023-03-04T14:38:31;102205;;;6.48;66.72
62632;BME280;48703;51.248;-0.546;2023-03-04T14:41:32;102203;;;6.47;67.46
62632;BME280;48703;51.248;-0.546;2023-03-04T14:44:35;102200;;;6.48;67.73
62632;BME280;48703;51.248;-0.546;2023-03-04T14:47:37;102198;;;6.49;67.21
62632;BME280;48703;51.248;-0.546;2023-03-04T14:50:46;102196;;;6.48;67.75
62632;BME280;48703;51.248;-0.546;2023-03-04T14:53:51;102197;;;6.41;65.92
62632;BME280;48703;51.248;-0.546;2023-03-04T14:56:42;102195;;;6.38;66.41
62632;BME280;48703;51.248;-0.546;2023-03-04T14:59:44;102190;;;6.39;67.67
62632;BME280;48703;51.248;-0.546;2023-03-04T15:02:47;102187;;;6.42;68.03
62632;BME280;48703;51.248;-0.546;2023-03-04T15:05:48;102185;;;6.39;66.65
62632;BME280;48703;51.248;-0.546;2023-03-04T15:08:58;102180;;;6.38;67.07
62632;BME280;48703;51.248;-0.546;2023-03-04T15:11:56;102179;;;6.38;67.12
62632;BME280;48703;51.248;-0.546;2023-03-04T15:14:54;102177;;;6.35;66.26
62632;BME280;48703;51.248;-0.546;2023-03-04T15:17:56;102173;;;6.35;67.83
62632;BME280;48703;51.248;-0.546;2023-03-04T15:20:58;102170;;;6.31;66.13
62632;BME280;48703;51.248;-0.546;2023-03-04T15:24:00;102167;;;6.23;66.12
62632;BME280;48703;51.248;-0.546;2023-03-04T15:27:02;102166;;;6.19;65.53
62632;BME280;48703;51.248;-0.546;2023-03-04T15:30:05;102161;;;6.21;66.32
62632;BME280;48703;51.248;-0.546;2023-03-04T15:33:08;102159;;;6.23;66.78
62632;BME280;48703;51.248;-0.546;2023-03-04T15:36:08;102160;;;6.25;67.71
62632;BME280;48703;51.248;-0.546;2023-03-04T15:39:09;102157;;;6.24;67.58
62632;BME280;48703;51.248;-0.546;2023-03-04T15:42:11;102158;;;6.25;68.19
62632;BME280;48703;51.248;-0.546;2023-03-04T15:45:19;102158;;;6.22;66.47
62632;BME280;48703;51.248;-0.546;2023-03-04T15:48:16;102159;;;6.17;67.44
62632;BME280;48703;51.248;-0.546;2023-03-04T15:51:19;102158;;;6.14;66.64
62632;BME280;48703;51.248;-0.546;2023-03-04T15:54:19;102156;;;6.15;67.48
62632;BME280;48703;51.248;-0.546;2023-03-04T15:57:22;102152;;;6.13;67.12
62632;BME280;48703;51.248;-0.546;2023-03-04T16:00:23;102145;;;6.11;67.39
62632;BME280;48703;51.248;-0.546;2023-03-04T16:03:25;102140;;;6.12;68.03
62632;BME280;48703;51.248;-0.546;2023-03-04T16:06:27;102139;;;6.12;67.92
62632;BME280;48703;51.248;-0.546;2023-03-04T16:09:29;102138;;;6.11;67.07
62632;BME280;48703;51.248;-0.546;2023-03-04T16:12:31;102136;;;6.11;67.24
62632;BME280;48703;51.248;-0.546;2023-03-04T16:15:33;102134;;;6.11;67.41
62632;BME280;48703;51.248;-0.546;2023-03-04T16:18:35;102132;;;6.09;67.52
62632;BME280;48703;51.248;-0.546;2023-03-04T16:21:36;102133;;;6.08;66.74
62632;BME280;48703;51.248;-0.546;2023-03-04T16:24:39;102133;;;6.07;67.30
62632;BME280;48703;51.248;-0.546;2023-03-04T16:27:41;102131;;;6.07;67.44
62632;BME280;48703;51.248;-0.546;2023-03-04T16:30:42;102134;;;6.03;66.70